createdAt,value
2023-03-27T00:01:00.426Z,98.17
2023-03-27T00:02:03.023Z,100.00
2023-03-27T00:03:04.635Z,100.00
2023-03-27T00:04:09.067Z,99.80
2023-03-27T00:05:12.036Z,98.99
2023-03-27T00:06:16.497Z,98.95
2023-03-27T00:07:19.921Z,100.00
2023-03-27T00:08:22.522Z,100.00
2023-03-27T00:09:24.054Z,100.00
2023-03-27T00:10:26.530Z,100.00
2023-03-27T00:11:28.100Z,100.00
2023-03-27T00:12:30.573Z,100.00
2023-03-27T00:13:32.209Z,100.00
2023-03-27T00:14:36.249Z,100.00
2023-03-27T00:15:39.376Z,100.00
2023-03-27T00:16:42.054Z,100.00
2023-03-27T00:17:46.687Z,100.00
2023-03-27T00:18:49.326Z,99.41
2023-03-27T00:19:50.895Z,100.00
2023-03-27T00:20:55.061Z,100.00
2023-03-27T00:21:56.759Z,99.65
2023-03-27T00:22:59.263Z,99.21
2023-03-27T00:24:00.929Z,100.00
2023-03-27T00:25:04.002Z,100.00
2023-03-27T00:26:06.206Z,100.00
2023-03-27T00:27:09.113Z,99.95
2023-03-27T00:28:10.756Z,99.76
2023-03-27T00:29:14.057Z,99.38
2023-03-27T00:30:15.889Z,98.92
2023-03-27T00:31:18.467Z,97.89
2023-03-27T00:32:20.496Z,97.66
2023-03-27T00:33:23.600Z,96.36
2023-03-27T00:34:25.280Z,96.50
2023-03-27T00:35:30.134Z,97.48
2023-03-27T00:36:32.961Z,96.92
2023-03-27T00:37:35.505Z,96.87
2023-03-27T00:38:37.225Z,97.40
2023-03-27T00:39:40.733Z,96.96
2023-03-27T00:41:06.215Z,96.58
2023-03-27T00:42:09.959Z,96.84
2023-03-27T00:43:21.419Z,97.63
2023-03-27T00:44:25.025Z,98.32
2023-03-27T00:45:30.480Z,97.75
2023-03-27T00:46:38.684Z,100.00
2023-03-27T00:47:41.592Z,99.91
2023-03-27T00:48:46.304Z,99.13
2023-03-27T00:49:50.757Z,98.49
2023-03-27T00:50:53.673Z,98.22
2023-03-27T00:51:58.425Z,97.91
2023-03-27T00:53:04.671Z,98.69
2023-03-27T00:54:07.459Z,98.17
2023-03-27T00:55:14.621Z,98.49
2023-03-27T00:56:19.058Z,97.16
2023-03-27T00:57:22.265Z,96.69
2023-03-27T00:58:30.089Z,96.43
2023-03-27T00:59:37.847Z,95.94
2023-03-27T01:00:40.472Z,95.57
2023-03-27T01:01:43.852Z,94.62
2023-03-27T01:02:50.358Z,95.07
2023-03-27T01:03:54.059Z,94.71
2023-03-27T01:04:57.657Z,95.34
2023-03-27T01:06:01.926Z,95.41
2023-03-27T01:07:07.316Z,94.95
2023-03-27T01:08:11.763Z,94.41
2023-03-27T01:09:21.243Z,93.89
2023-03-27T01:10:30.423Z,94.17
2023-03-27T01:11:43.461Z,93.89
2023-03-27T01:12:53.422Z,94.18
2023-03-27T01:14:06.661Z,95.17
2023-03-27T01:15:29.846Z,94.85
2023-03-27T01:16:40.352Z,94.56
2023-03-27T01:17:56.663Z,95.01
2023-03-27T01:19:26.231Z,93.97
2023-03-27T01:20:54.462Z,94.09
2023-03-27T01:22:22.376Z,93.65
2023-03-27T01:24:14.464Z,93.58
2023-03-27T01:25:51.097Z,93.02
2023-03-27T01:27:16.251Z,94.32
2023-03-27T01:28:45.944Z,94.60
2023-03-27T01:30:11.978Z,94.31
2023-03-27T01:31:30.545Z,94.23
2023-03-27T01:32:53.301Z,94.53
2023-03-27T01:34:21.707Z,94.28
2023-03-27T01:35:37.039Z,94.51
2023-03-27T01:37:05.476Z,94.21
2023-03-27T01:38:25.227Z,92.69
2023-03-27T01:39:51.292Z,92.17
2023-03-27T01:41:01.308Z,91.68
2023-03-27T01:42:14.385Z,91.18
2023-03-27T01:43:21.489Z,91.81
2023-03-27T01:44:43.115Z,91.39
2023-03-27T01:45:53.747Z,92.80
2023-03-27T01:47:03.248Z,92.39
2023-03-27T01:48:12.781Z,91.83
2023-03-27T01:49:20.296Z,92.05
2023-03-27T01:50:27.184Z,92.24
2023-03-27T01:51:35.714Z,92.59
2023-03-27T01:52:43.481Z,91.83
2023-03-27T01:53:49.636Z,91.47
2023-03-27T01:54:58.276Z,91.96
2023-03-27T01:56:05.165Z,92.01
2023-03-27T01:57:16.226Z,92.75
2023-03-27T01:58:23.734Z,91.99
2023-03-27T01:59:29.001Z,91.65
2023-03-27T02:00:51.920Z,90.92
2023-03-27T02:02:00.832Z,91.31
2023-03-27T02:03:11.185Z,91.07
2023-03-27T02:04:17.986Z,90.86
2023-03-27T02:05:26.123Z,90.63
2023-03-27T02:06:33.496Z,90.91
2023-03-27T02:07:39.836Z,90.88
2023-03-27T02:08:46.691Z,91.79
2023-03-27T02:09:52.002Z,92.00
2023-03-27T02:10:58.680Z,92.86
2023-03-27T02:12:07.569Z,92.67
2023-03-27T02:13:18.500Z,93.40
2023-03-27T02:14:24.364Z,92.92
2023-03-27T02:15:31.817Z,93.66
2023-03-27T02:16:41.260Z,93.79
2023-03-27T02:17:48.013Z,93.95
2023-03-27T02:18:56.796Z,94.20
2023-03-27T02:20:09.778Z,93.24
2023-03-27T02:21:14.281Z,92.61
2023-03-27T02:22:16.219Z,91.74
2023-03-27T02:23:18.773Z,91.59
2023-03-27T02:24:20.398Z,92.34
2023-03-27T02:25:26.043Z,92.24
2023-03-27T02:26:30.509Z,92.68
2023-03-27T02:27:41.436Z,92.54
2023-03-27T02:28:56.175Z,91.81
2023-03-27T02:30:06.121Z,91.16
2023-03-27T02:31:32.900Z,91.52
2023-03-27T02:32:47.408Z,91.15
2023-03-27T02:34:08.755Z,91.93
2023-03-27T02:35:28.425Z,93.07
2023-03-27T02:36:40.651Z,92.28
2023-03-27T02:37:55.508Z,92.10
2023-03-27T02:39:04.377Z,92.03
2023-03-27T02:40:14.116Z,91.58
2023-03-27T02:41:24.208Z,91.67
2023-03-27T02:42:34.178Z,91.85
2023-03-27T02:43:44.195Z,91.15
2023-03-27T02:44:51.718Z,90.88
2023-03-27T02:45:59.874Z,91.06
2023-03-27T02:47:07.330Z,90.36
2023-03-27T02:48:16.286Z,90.72
2023-03-27T02:49:23.548Z,90.86
2023-03-27T02:50:29.246Z,91.73
2023-03-27T02:51:34.761Z,91.14
2023-03-27T02:52:42.133Z,92.04
2023-03-27T02:53:47.966Z,91.46
2023-03-27T02:54:54.748Z,92.40
2023-03-27T02:56:00.256Z,91.04
2023-03-27T02:57:06.775Z,91.04
2023-03-27T02:58:15.091Z,91.22
2023-03-27T02:59:23.520Z,91.38
2023-03-27T03:00:28.318Z,90.86
2023-03-27T03:01:33.458Z,90.19
2023-03-27T03:02:37.629Z,90.31
2023-03-27T03:03:45.349Z,90.64
2023-03-27T03:04:57.160Z,90.11
2023-03-27T03:06:00.415Z,90.37
2023-03-27T03:07:04.348Z,90.27
2023-03-27T03:08:10.049Z,89.70
2023-03-27T03:09:14.861Z,89.25
2023-03-27T03:10:17.844Z,88.94
2023-03-27T03:11:21.878Z,90.20
2023-03-27T03:12:24.438Z,92.37
2023-03-27T03:13:27.271Z,91.99
2023-03-27T03:14:33.084Z,91.91
2023-03-27T03:15:34.678Z,92.05
2023-03-27T03:16:37.167Z,92.00
2023-03-27T03:17:41.782Z,91.00
2023-03-27T03:18:44.307Z,91.04
2023-03-27T03:19:45.851Z,89.91
2023-03-27T03:20:48.345Z,89.71
2023-03-27T03:21:50.725Z,89.08
2023-03-27T03:22:53.298Z,89.21
2023-03-27T03:23:57.490Z,87.93
2023-03-27T03:25:01.277Z,88.25
2023-03-27T03:26:03.104Z,88.58
2023-03-27T03:27:05.963Z,89.15
2023-03-27T03:28:08.249Z,88.45
2023-03-27T03:29:13.009Z,88.07
2023-03-27T03:30:17.496Z,88.20
2023-03-27T03:31:22.490Z,88.61
2023-03-27T03:32:24.054Z,88.83
2023-03-27T03:33:28.120Z,87.91
2023-03-27T03:34:30.427Z,88.17
2023-03-27T03:35:34.760Z,87.46
2023-03-27T03:36:36.410Z,87.57
2023-03-27T03:37:39.377Z,88.25
2023-03-27T03:38:42.193Z,87.84
2023-03-27T03:39:43.856Z,87.88
2023-03-27T03:40:46.574Z,88.20
2023-03-27T03:41:48.796Z,87.98
2023-03-27T03:42:53.022Z,88.37
2023-03-27T03:43:54.530Z,88.21
2023-03-27T03:44:58.371Z,88.16
2023-03-27T03:46:00.338Z,87.66
2023-03-27T03:47:03.044Z,87.94
2023-03-27T03:48:04.863Z,87.38
2023-03-27T03:49:07.551Z,86.60
2023-03-27T03:50:10.391Z,87.03
2023-03-27T03:51:13.250Z,87.40
2023-03-27T03:52:14.874Z,87.82
2023-03-27T03:53:19.244Z,86.46
2023-03-27T03:54:20.827Z,86.33
2023-03-27T03:55:25.640Z,84.95
2023-03-27T03:56:29.415Z,86.47
2023-03-27T03:57:32.046Z,86.74
2023-03-27T03:58:34.417Z,85.96
2023-03-27T03:59:37.656Z,86.05
2023-03-27T04:00:40.601Z,85.55
2023-03-27T04:01:43.212Z,85.35
2023-03-27T04:02:45.580Z,84.90
2023-03-27T04:03:49.174Z,85.33
2023-03-27T04:04:50.818Z,85.57
2023-03-27T04:05:53.505Z,85.88
2023-03-27T04:06:58.310Z,85.00
2023-03-27T04:08:01.186Z,84.71
2023-03-27T04:09:02.690Z,84.74
2023-03-27T04:10:05.825Z,84.88
2023-03-27T04:11:07.346Z,85.42
2023-03-27T04:12:10.005Z,86.06
2023-03-27T04:13:14.615Z,85.35
2023-03-27T04:14:17.298Z,85.28
2023-03-27T04:15:19.050Z,84.83
2023-03-27T04:16:23.619Z,85.06
2023-03-27T04:17:26.473Z,85.81
2023-03-27T04:18:30.471Z,85.81
2023-03-27T04:19:32.059Z,85.26
2023-03-27T04:20:35.295Z,85.47
2023-03-27T04:21:37.563Z,85.52
2023-03-27T04:22:46.316Z,85.15
2023-03-27T04:23:48.281Z,85.36
2023-03-27T04:24:51.708Z,85.05
2023-03-27T04:25:53.653Z,84.90
2023-03-27T04:26:58.286Z,85.30
2023-03-27T04:28:02.236Z,84.91
2023-03-27T04:29:10.553Z,84.97
2023-03-27T04:30:14.155Z,84.13
2023-03-27T04:31:17.229Z,84.38
2023-03-27T04:32:20.124Z,85.26
2023-03-27T04:33:22.901Z,85.08
2023-03-27T04:34:27.232Z,85.19
2023-03-27T04:35:29.836Z,84.87
2023-03-27T04:36:31.661Z,84.46
2023-03-27T04:37:34.121Z,85.23
2023-03-27T04:38:36.984Z,85.19
2023-03-27T04:39:45.708Z,85.66
2023-03-27T04:40:49.112Z,85.43
2023-03-27T04:41:53.807Z,84.93
2023-03-27T04:42:56.505Z,85.21
2023-03-27T04:43:58.975Z,84.93
2023-03-27T04:45:01.582Z,85.74
2023-03-27T04:46:06.813Z,85.34
2023-03-27T04:47:09.138Z,85.88
2023-03-27T04:48:13.167Z,85.69
2023-03-27T04:49:19.050Z,86.26
2023-03-27T04:50:21.856Z,87.16
2023-03-27T04:51:26.530Z,87.87
2023-03-27T04:52:29.722Z,88.95
2023-03-27T04:53:32.249Z,88.72
2023-03-27T04:54:35.129Z,88.03
2023-03-27T04:55:38.132Z,87.70
2023-03-27T04:56:41.739Z,87.13
2023-03-27T04:57:57.544Z,87.95
2023-03-27T04:59:00.308Z,87.70
2023-03-27T05:00:11.592Z,87.66
2023-03-27T05:01:17.506Z,86.66
2023-03-27T05:02:19.300Z,86.33
2023-03-27T05:03:23.887Z,86.28
2023-03-27T05:04:26.627Z,86.72
2023-03-27T05:05:29.254Z,86.42
2023-03-27T05:06:32.968Z,87.02
2023-03-27T05:07:35.964Z,86.95
2023-03-27T05:08:37.475Z,87.21
2023-03-27T05:09:40.290Z,87.09
2023-03-27T05:10:42.185Z,86.99
2023-03-27T05:11:49.460Z,86.00
2023-03-27T05:12:56.430Z,85.63
2023-03-27T05:14:15.081Z,85.42
2023-03-27T05:15:18.130Z,85.38
2023-03-27T05:16:20.889Z,85.41
2023-03-27T05:17:25.775Z,85.56
2023-03-27T05:18:30.750Z,85.89
2023-03-27T05:19:32.452Z,85.62
2023-03-27T05:20:35.089Z,85.33
2023-03-27T05:21:37.307Z,84.91
2023-03-27T05:22:39.988Z,85.77
2023-03-27T05:23:42.177Z,85.69
2023-03-27T05:24:47.248Z,85.15
2023-03-27T05:25:59.653Z,84.42
2023-03-27T05:27:02.025Z,84.87
2023-03-27T05:28:04.481Z,85.03
2023-03-27T05:29:06.418Z,84.38
2023-03-27T05:30:10.107Z,85.07
2023-03-27T05:31:12.456Z,84.83
2023-03-27T05:32:14.993Z,84.18
2023-03-27T05:33:17.568Z,83.97
2023-03-27T05:34:21.867Z,83.56
2023-03-27T05:35:23.997Z,83.20
2023-03-27T05:36:27.581Z,83.37
2023-03-27T05:37:29.119Z,83.65
2023-03-27T05:38:33.100Z,84.33
2023-03-27T05:39:36.987Z,83.63
2023-03-27T05:40:40.151Z,83.95
2023-03-27T05:41:43.240Z,83.75
2023-03-27T05:42:46.299Z,83.66
2023-03-27T05:43:51.799Z,83.98
2023-03-27T05:44:53.487Z,83.28
2023-03-27T05:45:56.003Z,82.12
2023-03-27T05:46:57.634Z,82.65
2023-03-27T05:48:02.222Z,83.52
2023-03-27T05:49:05.185Z,83.31
2023-03-27T05:50:10.036Z,83.46
2023-03-27T05:51:12.598Z,83.82
2023-03-27T05:52:14.480Z,83.19
2023-03-27T05:53:16.973Z,82.94
2023-03-27T05:54:18.447Z,83.56
2023-03-27T05:55:20.994Z,83.83
2023-03-27T05:56:23.623Z,83.37
2023-03-27T05:57:25.437Z,83.54
2023-03-27T05:58:28.120Z,83.11
2023-03-27T05:59:29.615Z,83.32
2023-03-27T06:00:34.245Z,83.25
2023-03-27T06:01:36.194Z,83.40
2023-03-27T06:02:39.637Z,82.63
2023-03-27T06:03:43.498Z,82.46
2023-03-27T06:04:46.312Z,83.60
2023-03-27T06:05:50.033Z,83.14
2023-03-27T06:06:52.476Z,82.91
2023-03-27T06:07:54.011Z,82.55
2023-03-27T06:08:57.053Z,82.54
2023-03-27T06:09:58.556Z,82.63
2023-03-27T06:11:01.160Z,82.06
2023-03-27T06:12:02.854Z,83.65
2023-03-27T06:13:08.653Z,82.78
2023-03-27T06:14:11.373Z,82.95
2023-03-27T06:15:12.930Z,82.16
2023-03-27T06:16:16.822Z,82.39
2023-03-27T06:17:18.360Z,81.49
2023-03-27T06:18:21.528Z,81.65
2023-03-27T06:19:24.457Z,82.36
2023-03-27T06:20:27.643Z,81.53
2023-03-27T06:21:31.481Z,81.75
2023-03-27T06:22:32.969Z,82.30
2023-03-27T06:23:35.451Z,81.98
2023-03-27T06:24:36.988Z,81.19
2023-03-27T06:25:40.275Z,82.02
2023-03-27T06:26:42.708Z,82.02
2023-03-27T06:27:45.417Z,81.80
2023-03-27T06:28:48.542Z,82.51
2023-03-27T06:29:50.101Z,82.56
2023-03-27T06:30:52.641Z,81.88
2023-03-27T06:31:57.228Z,82.75
2023-03-27T06:33:00.869Z,82.92
2023-03-27T06:34:02.544Z,82.93
2023-03-27T06:35:05.663Z,81.83
2023-03-27T06:36:10.182Z,80.80
2023-03-27T06:37:13.191Z,80.14
2023-03-27T06:38:38.088Z,80.02
2023-03-27T06:39:39.809Z,80.17
2023-03-27T06:40:42.923Z,79.90
2023-03-27T06:41:44.402Z,80.73
2023-03-27T06:42:50.695Z,81.18
2023-03-27T06:43:53.251Z,80.26
2023-03-27T06:44:54.783Z,80.39
2023-03-27T06:45:58.200Z,80.29
2023-03-27T06:46:59.910Z,80.81
2023-03-27T06:48:16.163Z,81.38
2023-03-27T06:49:22.655Z,80.93
2023-03-27T06:50:26.147Z,81.05
2023-03-27T06:51:28.658Z,80.54
2023-03-27T06:52:31.588Z,79.92
2023-03-27T06:53:38.076Z,80.33
2023-03-27T06:54:40.024Z,79.01
2023-03-27T06:55:42.515Z,78.12
2023-03-27T06:56:45.019Z,78.52
2023-03-27T06:57:48.783Z,78.90
2023-03-27T06:58:51.328Z,77.54
2023-03-27T06:59:53.408Z,76.72
2023-03-27T07:00:55.961Z,75.41
2023-03-27T07:01:57.470Z,75.90
2023-03-27T07:03:02.772Z,75.97
2023-03-27T07:04:05.085Z,75.89
2023-03-27T07:05:08.383Z,76.42
2023-03-27T07:06:11.118Z,75.61
2023-03-27T07:07:12.963Z,75.82
2023-03-27T07:08:23.511Z,75.72
2023-03-27T07:09:30.611Z,75.05
2023-03-27T07:10:32.689Z,74.35
2023-03-27T07:11:35.130Z,72.41
2023-03-27T07:12:36.936Z,73.75
2023-03-27T07:13:41.262Z,72.79
2023-03-27T07:14:43.039Z,72.28
2023-03-27T07:15:46.017Z,72.55
2023-03-27T07:16:47.783Z,73.03
2023-03-27T07:17:54.685Z,72.02
2023-03-27T07:19:00.878Z,71.75
2023-03-27T07:20:06.225Z,72.41
2023-03-27T07:21:08.800Z,71.16
2023-03-27T07:22:10.550Z,71.03
2023-03-27T07:23:13.026Z,71.50
2023-03-27T07:24:16.947Z,71.02
2023-03-27T07:25:19.479Z,72.14
2023-03-27T07:26:22.124Z,71.84
2023-03-27T07:27:24.135Z,70.77
2023-03-27T07:28:26.830Z,71.21
2023-03-27T07:29:28.382Z,71.49
2023-03-27T07:30:30.987Z,70.77
2023-03-27T07:31:54.881Z,70.54
2023-03-27T07:32:58.083Z,70.37
2023-03-27T07:34:01.057Z,71.16
2023-03-27T07:35:05.406Z,70.61
2023-03-27T07:36:09.542Z,71.31
2023-03-27T07:37:11.387Z,71.69
2023-03-27T07:38:14.537Z,71.35
2023-03-27T07:39:17.610Z,71.50
2023-03-27T07:40:26.586Z,71.66
2023-03-27T07:41:39.757Z,71.12
2023-03-27T07:42:45.141Z,69.67
2023-03-27T07:43:47.856Z,70.00
2023-03-27T07:44:50.545Z,70.24
2023-03-27T07:45:53.134Z,70.06
2023-03-27T07:46:54.642Z,68.91
2023-03-27T07:48:05.847Z,71.43
2023-03-27T07:49:09.361Z,70.03
2023-03-27T07:50:11.606Z,70.29
2023-03-27T07:51:14.445Z,71.17
2023-03-27T07:52:18.311Z,71.07
2023-03-27T07:53:33.975Z,70.88
2023-03-27T07:54:38.871Z,71.41
2023-03-27T07:55:41.883Z,70.77
2023-03-27T07:56:44.516Z,69.71
2023-03-27T07:57:59.886Z,69.95
2023-03-27T07:59:03.939Z,70.22
2023-03-27T08:00:11.552Z,70.68
2023-03-27T08:01:14.384Z,68.76
2023-03-27T08:02:15.989Z,68.81
2023-03-27T08:03:20.124Z,68.67
2023-03-27T08:04:23.769Z,69.23
2023-03-27T08:05:26.719Z,69.70
2023-03-27T08:06:29.179Z,69.18
2023-03-27T08:07:32.270Z,68.44
2023-03-27T08:08:34.800Z,68.36
2023-03-27T08:09:38.996Z,68.58
2023-03-27T08:10:41.276Z,68.66
2023-03-27T08:11:44.313Z,68.32
2023-03-27T08:12:46.817Z,67.83
2023-03-27T08:13:48.393Z,68.75
2023-03-27T08:14:50.836Z,67.79
2023-03-27T08:16:02.981Z,69.41
2023-03-27T08:17:15.228Z,69.74
2023-03-27T08:18:19.008Z,68.81
2023-03-27T08:19:21.320Z,68.39
2023-03-27T08:20:24.370Z,68.60
2023-03-27T08:21:26.188Z,69.07
2023-03-27T08:22:28.715Z,69.02
2023-03-27T08:23:31.184Z,68.48
2023-03-27T08:24:33.769Z,67.95
2023-03-27T08:25:36.761Z,67.82
2023-03-27T08:26:39.233Z,68.30
2023-03-27T08:27:40.811Z,68.06
2023-03-27T08:28:43.649Z,66.99
2023-03-27T08:29:46.272Z,68.14
2023-03-27T08:30:47.819Z,67.97
2023-03-27T08:31:50.346Z,68.31
2023-03-27T08:32:52.815Z,69.43
2023-03-27T08:33:54.633Z,69.00
2023-03-27T08:34:57.201Z,67.60
2023-03-27T08:35:59.516Z,67.53
2023-03-27T08:37:03.114Z,66.94
2023-03-27T08:38:07.338Z,66.66
2023-03-27T08:39:13.905Z,66.49
2023-03-27T08:40:20.576Z,66.26
2023-03-27T08:41:30.619Z,65.94
2023-03-27T08:42:38.037Z,65.55
2023-03-27T08:43:42.846Z,65.73
2023-03-27T08:44:45.607Z,65.44
2023-03-27T08:45:53.847Z,66.30
2023-03-27T08:47:01.347Z,66.10
2023-03-27T08:48:13.549Z,66.30
2023-03-27T08:49:17.481Z,65.28
2023-03-27T08:50:31.572Z,66.34
2023-03-27T08:51:39.166Z,65.55
2023-03-27T08:52:43.195Z,65.07
2023-03-27T08:53:52.308Z,66.42
2023-03-27T08:54:59.573Z,66.58
2023-03-27T08:56:03.059Z,66.59
2023-03-27T08:57:18.300Z,66.00
2023-03-27T08:58:22.753Z,66.22
2023-03-27T08:59:26.419Z,65.51
2023-03-27T09:00:35.348Z,65.51
2023-03-27T09:01:41.604Z,65.77
2023-03-27T09:02:51.475Z,65.59
2023-03-27T09:04:01.674Z,67.08
2023-03-27T09:05:09.906Z,66.68
2023-03-27T09:06:23.459Z,66.57
2023-03-27T09:07:34.281Z,65.70
2023-03-27T09:08:42.166Z,65.91
2023-03-27T09:09:55.832Z,66.43
2023-03-27T09:11:03.557Z,65.12
2023-03-27T09:12:21.513Z,64.60
2023-03-27T09:13:28.581Z,65.17
2023-03-27T09:14:36.651Z,64.02
2023-03-27T09:15:44.202Z,64.10
2023-03-27T09:16:49.502Z,65.73
2023-03-27T09:18:01.370Z,64.30
2023-03-27T09:19:13.543Z,64.43
2023-03-27T09:20:25.335Z,63.83
2023-03-27T09:21:35.075Z,65.04
2023-03-27T09:22:43.933Z,65.00
2023-03-27T09:23:47.560Z,63.56
2023-03-27T09:24:53.213Z,62.89
2023-03-27T09:25:57.829Z,63.06
2023-03-27T09:27:07.659Z,62.02
2023-03-27T09:28:18.789Z,62.47
2023-03-27T09:29:22.509Z,62.13
2023-03-27T09:30:27.860Z,61.98
2023-03-27T09:31:33.626Z,62.74
2023-03-27T09:32:35.909Z,62.53
2023-03-27T09:33:41.705Z,61.77
2023-03-27T09:34:45.050Z,62.46
2023-03-27T09:35:47.504Z,62.58
2023-03-27T09:36:50.142Z,63.23
2023-03-27T09:37:58.454Z,64.42
2023-03-27T09:39:07.656Z,64.67
2023-03-27T09:40:23.352Z,64.15
2023-03-27T09:41:30.428Z,65.13
2023-03-27T09:42:37.610Z,64.05
2023-03-27T09:43:44.704Z,62.92
2023-03-27T09:44:50.431Z,61.44
2023-03-27T09:45:55.134Z,61.14
2023-03-27T09:47:02.416Z,61.40
2023-03-27T09:48:11.988Z,59.35
2023-03-27T09:49:17.071Z,60.72
2023-03-27T09:50:27.365Z,60.38
2023-03-27T09:51:42.377Z,62.07
2023-03-27T09:52:45.017Z,60.66
2023-03-27T09:53:58.434Z,63.13
2023-03-27T09:55:02.716Z,61.92
2023-03-27T09:56:12.754Z,60.51
2023-03-27T09:57:14.461Z,61.11
2023-03-27T09:58:30.476Z,59.78
2023-03-27T09:59:37.949Z,61.71
2023-03-27T10:00:40.592Z,61.56
2023-03-27T10:01:47.590Z,60.61
2023-03-27T10:02:49.103Z,60.23
2023-03-27T10:03:53.509Z,59.66
2023-03-27T10:05:00.740Z,60.03
2023-03-27T10:06:08.465Z,59.96
2023-03-27T10:07:24.142Z,62.13
2023-03-27T10:08:38.028Z,63.48
2023-03-27T10:09:41.050Z,65.27
2023-03-27T10:10:45.379Z,66.07
2023-03-27T10:11:50.299Z,67.99
2023-03-27T10:12:55.838Z,67.47
2023-03-27T10:14:00.789Z,67.10
2023-03-27T10:15:06.896Z,67.88
2023-03-27T10:16:11.895Z,67.61
2023-03-27T10:17:23.588Z,68.51
2023-03-27T10:18:27.864Z,67.23
2023-03-27T10:19:35.474Z,64.93
2023-03-27T10:20:37.448Z,64.26
2023-03-27T10:21:43.103Z,64.90
2023-03-27T10:22:54.704Z,62.22
2023-03-27T10:24:04.205Z,63.10
2023-03-27T10:25:16.662Z,59.98
2023-03-27T10:26:21.361Z,59.91
2023-03-27T10:27:27.083Z,60.92
2023-03-27T10:28:34.430Z,60.27
2023-03-27T10:29:40.537Z,59.52
2023-03-27T10:30:44.272Z,60.41
2023-03-27T10:31:53.616Z,61.22
2023-03-27T10:32:55.535Z,62.10
2023-03-27T10:34:00.878Z,61.72
2023-03-27T10:35:11.633Z,62.83
2023-03-27T10:36:13.258Z,62.58
2023-03-27T10:37:23.001Z,62.05
2023-03-27T10:38:27.719Z,63.15
2023-03-27T10:39:37.394Z,60.30
2023-03-27T10:40:42.073Z,60.51
2023-03-27T10:41:48.558Z,60.58
2023-03-27T10:42:50.822Z,60.39
2023-03-27T10:43:54.211Z,57.24
2023-03-27T10:44:57.563Z,53.88
2023-03-27T10:46:05.845Z,52.07
2023-03-27T10:47:17.980Z,47.50
2023-03-27T10:48:33.555Z,50.02
2023-03-27T10:49:44.443Z,48.03
2023-03-27T10:50:53.352Z,49.08
2023-03-27T10:52:08.510Z,49.91
2023-03-27T10:53:17.997Z,50.54
2023-03-27T10:54:35.607Z,52.03
2023-03-27T10:55:53.913Z,54.43
2023-03-27T10:57:02.408Z,54.79
2023-03-27T10:58:34.484Z,55.49
2023-03-27T10:59:44.493Z,57.22
2023-03-27T11:00:54.121Z,58.76
2023-03-27T11:02:01.203Z,60.20
2023-03-27T11:03:12.231Z,60.59
2023-03-27T11:04:23.135Z,61.30
2023-03-27T11:05:28.068Z,62.34
2023-03-27T11:06:33.453Z,63.52
2023-03-27T11:07:41.404Z,63.45
2023-03-27T11:08:53.118Z,63.71
2023-03-27T11:10:05.541Z,63.61
2023-03-27T11:11:14.934Z,63.39
2023-03-27T11:12:19.860Z,62.28
2023-03-27T11:13:27.974Z,60.17
2023-03-27T11:14:45.423Z,59.75
2023-03-27T11:15:54.168Z,56.79
2023-03-27T11:17:04.158Z,52.49
2023-03-27T11:18:16.982Z,52.15
2023-03-27T11:19:36.160Z,50.34
2023-03-27T11:20:45.801Z,47.98
2023-03-27T11:21:53.565Z,47.59
2023-03-27T11:23:00.910Z,46.64
2023-03-27T11:24:07.061Z,47.31
2023-03-27T11:25:19.787Z,45.88
2023-03-27T11:26:28.320Z,48.30
2023-03-27T11:27:37.270Z,49.73
2023-03-27T11:28:44.525Z,52.38
2023-03-27T11:29:54.768Z,54.71
2023-03-27T11:31:12.980Z,53.96
2023-03-27T11:32:24.474Z,55.36
2023-03-27T11:33:39.222Z,55.34
2023-03-27T11:34:48.526Z,56.42
2023-03-27T11:35:58.158Z,58.26
2023-03-27T11:37:05.679Z,62.18
2023-03-27T11:38:17.248Z,66.68
2023-03-27T11:39:27.093Z,68.19
2023-03-27T11:40:34.193Z,69.51
2023-03-27T11:41:36.914Z,70.67
2023-03-27T11:42:43.478Z,71.63
2023-03-27T11:43:45.976Z,69.57
2023-03-27T11:44:48.701Z,68.93
2023-03-27T11:45:59.712Z,63.34
2023-03-27T11:47:27.654Z,59.33
2023-03-27T11:48:44.171Z,55.87
2023-03-27T11:50:09.438Z,54.19
2023-03-27T11:51:20.599Z,54.05
2023-03-27T11:52:36.611Z,51.39
2023-03-27T11:54:00.226Z,54.30
2023-03-27T11:55:11.489Z,52.38
2023-03-27T11:56:38.650Z,48.72
2023-03-27T11:57:54.678Z,48.30
2023-03-27T11:59:20.489Z,46.47
2023-03-27T12:00:36.269Z,43.30
2023-03-27T12:01:43.805Z,42.67
2023-03-27T12:03:06.816Z,42.97
2023-03-27T12:04:27.160Z,41.18
2023-03-27T12:05:43.143Z,38.42
2023-03-27T12:06:56.984Z,37.92
2023-03-27T12:08:09.703Z,38.34
2023-03-27T12:09:47.691Z,38.72
2023-03-27T12:10:53.011Z,38.53
2023-03-27T12:12:02.758Z,39.05
2023-03-27T12:13:41.618Z,38.32
2023-03-27T12:15:00.270Z,39.72
2023-03-27T12:16:19.744Z,40.60
2023-03-27T12:17:35.416Z,41.31
2023-03-27T12:19:03.822Z,42.49
2023-03-27T12:20:30.055Z,44.43
2023-03-27T12:21:46.477Z,46.65
2023-03-27T12:22:57.552Z,48.15
2023-03-27T12:24:22.175Z,49.21
2023-03-27T12:25:43.705Z,55.02
2023-03-27T12:27:32.682Z,60.51
2023-03-27T12:28:49.850Z,63.97
2023-03-27T12:30:04.987Z,68.06
2023-03-27T12:31:27.512Z,69.73
2023-03-27T12:33:00.447Z,69.53
2023-03-27T12:34:06.146Z,68.85
2023-03-27T12:35:21.426Z,68.36
2023-03-27T12:36:27.310Z,68.20
2023-03-27T12:37:36.794Z,65.88
2023-03-27T12:38:41.908Z,60.39
2023-03-27T12:39:51.882Z,58.73
2023-03-27T12:41:03.136Z,55.89
2023-03-27T12:42:14.486Z,55.15
2023-03-27T12:43:39.682Z,55.01
2023-03-27T12:45:13.330Z,57.26
2023-03-27T12:46:34.641Z,56.46
2023-03-27T12:47:36.216Z,56.93
2023-03-27T12:48:49.502Z,58.80
2023-03-27T12:50:01.117Z,59.34
2023-03-27T12:51:13.733Z,59.50
2023-03-27T12:52:18.636Z,60.60
2023-03-27T12:53:49.089Z,62.81
2023-03-27T12:55:29.637Z,63.54
2023-03-27T12:56:37.107Z,66.26
2023-03-27T12:57:43.830Z,65.89
2023-03-27T12:58:49.138Z,65.31
2023-03-27T12:59:54.556Z,65.16
2023-03-27T13:01:00.921Z,64.41
2023-03-27T13:02:37.602Z,63.84
2023-03-27T13:03:57.633Z,63.88
2023-03-27T13:05:31.359Z,62.22
2023-03-27T13:06:45.233Z,58.02
2023-03-27T13:07:56.988Z,53.05
2023-03-27T13:09:16.706Z,50.65
2023-03-27T13:10:34.754Z,49.86
2023-03-27T13:11:44.772Z,48.78
2023-03-27T13:13:07.760Z,46.07
2023-03-27T13:14:33.558Z,44.53
2023-03-27T13:15:51.697Z,44.08
2023-03-27T13:17:08.819Z,41.93
2023-03-27T13:18:31.679Z,41.12
2023-03-27T13:19:49.949Z,41.26
2023-03-27T13:21:03.181Z,40.67
2023-03-27T13:22:28.912Z,37.90
2023-03-27T13:23:48.364Z,36.78
2023-03-27T13:25:09.167Z,37.46
2023-03-27T13:26:20.655Z,36.94
2023-03-27T13:27:41.419Z,37.72
2023-03-27T13:28:48.961Z,41.05
2023-03-27T13:29:52.755Z,40.43
2023-03-27T13:30:58.176Z,42.21
2023-03-27T13:32:10.293Z,43.16
2023-03-27T13:33:24.044Z,48.88
2023-03-27T13:34:34.125Z,55.98
2023-03-27T13:35:41.984Z,61.92
2023-03-27T13:36:49.790Z,65.67
2023-03-27T13:38:13.494Z,72.70
2023-03-27T13:39:24.015Z,75.79
2023-03-27T13:40:35.609Z,79.45
2023-03-27T13:41:53.194Z,81.41
2023-03-27T13:43:28.225Z,83.88
2023-03-27T13:44:44.246Z,87.82
2023-03-27T13:45:50.639Z,89.02
2023-03-27T13:46:56.355Z,87.83
2023-03-27T13:48:21.165Z,86.71
2023-03-27T13:49:36.988Z,86.58
2023-03-27T13:51:04.096Z,88.78
2023-03-27T13:52:23.573Z,86.52
2023-03-27T13:53:56.658Z,78.26
2023-03-27T13:55:28.328Z,72.28
2023-03-27T13:56:42.772Z,73.28
2023-03-27T13:58:06.982Z,68.75
2023-03-27T13:59:41.110Z,63.16
2023-03-27T14:01:01.854Z,64.63
2023-03-27T14:02:29.945Z,66.56
2023-03-27T14:04:07.195Z,72.42
2023-03-27T14:05:45.459Z,73.19
2023-03-27T14:07:17.348Z,71.91
2023-03-27T14:08:36.132Z,72.71
2023-03-27T14:09:54.188Z,74.52
2023-03-27T14:11:30.574Z,75.40
2023-03-27T14:12:46.371Z,75.26
2023-03-27T14:14:03.954Z,76.31
2023-03-27T14:15:27.121Z,77.56
2023-03-27T14:16:57.716Z,77.00
2023-03-27T14:18:23.456Z,77.91
2023-03-27T14:19:51.635Z,79.19
2023-03-27T14:20:56.666Z,80.19
2023-03-27T14:22:01.228Z,82.43
2023-03-27T14:23:13.129Z,83.52
2023-03-27T14:24:24.898Z,84.21
2023-03-27T14:25:31.382Z,85.46
2023-03-27T14:26:33.834Z,86.28
2023-03-27T14:27:36.759Z,86.60
2023-03-27T14:28:51.686Z,87.29
2023-03-27T14:30:09.524Z,87.57
2023-03-27T14:31:14.774Z,87.54
2023-03-27T14:32:18.952Z,88.31
2023-03-27T14:33:22.024Z,89.45
2023-03-27T14:34:35.281Z,89.72
2023-03-27T14:35:44.917Z,89.37
2023-03-27T14:36:47.470Z,88.74
2023-03-27T14:37:56.935Z,87.71